Time;durP1;ratioP1;P1;durP2;ratioP2;P2;SDS_P1;SDS_P2;PMS_P1;PMS_P2;Temp;Humidity;BMP_temperature;BMP_pressure;BME280_temperature;BME280_humidity;BME280_pressure;Samples;Min_cycle;Max_cycle;Signal;HPM_P1;HPM_P2
2022/06/18 00:02:03;;;;;;;;;;;;;;;;;;5127994;28;19944;-69
2022/06/18 00:04:29;;;;;;;;;;;;;;;;;;5128077;28;19924;-70
2022/06/18 00:06:55;;;;;;;;;;;;;;;;;;5126733;28;19931;-70
2022/06/18 00:09:21;;;;;;;;;;;;;;;;;;5138493;27;19920;-70
2022/06/18 00:14:32;;;;;;;;;;;;;;;;;;5128159;28;20306;-70
2022/06/18 00:16:58;;;;;;;;;;;;;;;;;;5127018;28;19927;-70
2022/06/18 00:19:24;;;;;;;;;;;;;;;;;;5120850;27;19924;-70
2022/06/18 00:21:50;;;;;;;;;;;;;;;;;;5126694;28;19930;-71
2022/06/18 00:24:16;;;;;;;;;;;;;;;;;;5128129;28;20306;-70
2022/06/18 00:26:42;;;;;;;;;;;;;;;;;;5127820;28;20417;-70
2022/06/18 00:29:08;;;;;;;;;;;;;;;;;;5130750;27;20391;-70
2022/06/18 00:31:34;;;;;;;;;;;;;;;;;;5127764;28;19938;-70
2022/06/18 00:34:00;;;;;;;;;;;;;;;;;;5126107;28;19930;-70
2022/06/18 00:36:26;;;;;;;;;;;;;;;;;;5125629;28;19924;-70
2022/06/18 00:38:52;;;;;;;;;;;;;;;;;;5131915;27;19931;-70
2022/06/18 00:41:19;;;;;;;;;;;;;;;;;;5127263;28;19924;-70
2022/06/18 00:43:45;;;;;;;;;;;;;;;;;;5127608;28;19949;-70
2022/06/18 00:46:11;;;;;;;;;;;;;;;;;;5127597;28;19979;-70
2022/06/18 00:48:37;;;;;;;;;;;;;;;;;;5122879;28;19924;-70
2022/06/18 00:51:03;;;;;;;;;;;;;;;;;;5127402;28;19931;-71
2022/06/18 00:53:29;;;;;;;;;;;;;;;;;;5126947;28;19920;-70
2022/06/18 00:55:55;;;;;;;;;;;;;;;;;;5127492;28;19930;-70
2022/06/18 00:58:21;;;;;;;;;;;;;;;;;;5133913;27;19931;-70
2022/06/18 01:00:47;;;;;;;;;;;;;;;;;;5127628;27;19996;-70
2022/06/18 01:03:13;;;;;;;;;;;;;;;;;;5124321;28;19930;-69
2022/06/18 01:05:39;;;;;;;;;;;;;;;;;;5127058;28;19924;-70
2022/06/18 01:08:05;;;;;;;;;;;;;;;;;;5125734;28;20018;-70
2022/06/18 01:10:31;;;;;;;;;;;;;;;;;;5126994;28;19924;-70
2022/06/18 01:12:57;;;;;;;;;;;;;;;;;;5126958;28;19931;-70
2022/06/18 01:15:23;;;;;;;;;;;;;;;;;;5125432;28;19959;-70
2022/06/18 01:17:49;;;;;;;;;;;;;;;;;;5125726;27;19966;-70
2022/06/18 01:20:15;;;;;;;;;;;;;;;;;;5125067;28;20031;-71
2022/06/18 01:22:41;;;;;;;;;;;;;;;;;;5126718;28;19924;-70
2022/06/18 01:25:07;;;;;;;;;;;;;;;;;;5126404;28;19931;-70
2022/06/18 01:27:33;;;;;;;;;;;;;;;;;;5131281;27;19919;-70
2022/06/18 01:29:59;;;;;;;;;;;;;;;;;;5126475;28;19931;-70
2022/06/18 01:32:25;;;;;;;;;;;;;;;;;;5126496;28;19924;-70
2022/06/18 01:34:51;;;;;;;;;;;;;;;;;;5121985;28;19931;-70
2022/06/18 01:37:17;;;;;;;;;;;;;;;;;;5127620;27;19924;-70
2022/06/18 01:39:43;;;;;;;;;;;;;;;;;;5125118;27;20015;-70
2022/06/18 01:42:09;;;;;;;;;;;;;;;;;;5126320;28;20018;-70
2022/06/18 01:44:35;;;;;;;;;;;;;;;;;;5126158;28;19977;-70
2022/06/18 01:47:01;;;;;;;;;;;;;;;;;;5135332;27;19924;-70
2022/06/18 01:49:27;;;;;;;;;;;;;;;;;;5125899;28;20437;-70
2022/06/18 01:51:53;;;;;;;;;;;;;;;;;;5125935;28;19924;-70
2022/06/18 01:54:19;;;;;;;;;;;;;;;;;;5125386;27;19935;-70
2022/06/18 01:56:45;;;;;;;;;;;;;;;;;;5133545;27;19923;-70
2022/06/18 01:59:11;;;;;;;;;;;;;;;;;;5125549;28;19920;-70
2022/06/18 02:01:38;;;;;;;;;;;;;;;;;;5126021;28;19924;-70
2022/06/18 02:04:04;;;;;;;;;;;;;;;;;;5125343;28;19979;-70
2022/06/18 02:06:30;;;;;;;;;;;;;;;;;;5132746;27;19935;-70
2022/06/18 02:08:56;;;;;;;;;;;;;;;;;;5129985;27;20028;-70
2022/06/18 02:11:22;;;;;;;;;;;;;;;;;;5125835;27;19924;-70
2022/06/18 02:13:48;;;;;;;;;;;;;;;;;;5125502;28;19991;-70
2022/06/18 02:16:14;;;;;;;;;;;;;;;;;;5123466;28;19991;-70
2022/06/18 02:18:40;;;;;;;;;;;;;;;;;;5125505;28;19974;-69
2022/06/18 02:21:07;;;;;;;;;;;;;;;;;;5125650;28;20651;-70
2022/06/18 02:23:33;;;;;;;;;;;;;;;;;;5125564;28;19924;-70
2022/06/18 02:25:59;;;;;;;;;;;;;;;;;;5126770;28;20011;-70
2022/06/18 02:28:25;;;;;;;;;;;;;;;;;;5124494;28;19928;-70
2022/06/18 02:30:51;;;;;;;;;;;;;;;;;;5125086;28;19927;-70
2022/06/18 02:33:17;;;;;;;;;;;;;;;;;;5125122;27;20312;-70
2022/06/18 02:35:43;;;;;;;;;;;;;;;;;;5124765;28;19923;-70
2022/06/18 02:38:09;;;;;;;;;;;;;;;;;;5124721;28;19946;-70
2022/06/18 02:40:35;;;;;;;;;;;;;;;;;;5125568;28;20494;-70
2022/06/18 02:43:01;;;;;;;;;;;;;;;;;;5125401;28;19974;-70
2022/06/18 02:45:27;;;;;;;;;;;;;;;;;;5125474;27;19934;-70
2022/06/18 02:47:53;;;;;;;;;;;;;;;;;;5129866;28;19923;-70
2022/06/18 02:50:19;;;;;;;;;;;;;;;;;;5137165;28;19924;-70
2022/06/18 02:52:45;;;;;;;;;;;;;;;;;;5124680;28;20271;-70
2022/06/18 02:55:11;;;;;;;;;;;;;;;;;;5125288;28;19924;-70
2022/06/18 02:57:37;;;;;;;;;;;;;;;;;;5132222;28;20066;-70
2022/06/18 03:00:03;;;;;;;;;;;;;;;;;;5125622;28;19924;-70
2022/06/18 03:02:29;;;;;;;;;;;;;;;;;;5133312;27;20356;-70
2022/06/18 03:04:57;;;;;;;;;;;;;;;;;;5128146;28;20296;-71
2022/06/18 03:07:24;;;;;;;;;;;;;;;;;;5129603;27;20414;-70
2022/06/18 03:12:35;;;;;;;;;;;;;;;;;;5136409;27;20337;-70
2022/06/18 03:15:01;;;;;;;;;;;;;;;;;;5129189;28;19928;-70
2022/06/18 03:17:27;;;;;;;;;;;;;;;;;;5139314;27;19946;-70
2022/06/18 03:19:53;;;;;;;;;;;;;;;;;;5128046;28;19931;-70
2022/06/18 03:22:19;;;;;;;;;;;;;;;;;;5128877;28;19986;-70
2022/06/18 03:24:45;;;;;;;;;;;;;;;;;;5128970;28;19923;-70
2022/06/18 03:27:11;;;;;;;;;;;;;;;;;;5139570;27;19924;-70
2022/06/18 03:29:37;;;;;;;;;;;;;;;;;;5128677;27;20009;-70
2022/06/18 03:32:03;;;;;;;;;;;;;;;;;;5128946;28;19931;-70
2022/06/18 03:34:29;;;;;;;;;;;;;;;;;;5128477;28;20500;-70
2022/06/18 03:36:56;;;;;;;;;;;;;;;;;;5126581;27;19928;-70
2022/06/18 03:39:22;;;;;;;;;;;;;;;;;;5134385;27;20013;-70
2022/06/18 03:41:48;;;;;;;;;;;;;;;;;;5139800;27;19982;-70
2022/06/18 03:44:14;;;;;;;;;;;;;;;;;;5127032;28;20398;-70
2022/06/18 03:46:40;;;;;;;;;;;;;;;;;;5130425;27;19995;-70
2022/06/18 03:49:06;;;;;;;;;;;;;;;;;;5127772;28;19931;-70
2022/06/18 03:51:32;;;;;;;;;;;;;;;;;;5128304;28;19934;-71
2022/06/18 03:53:59;;;;;;;;;;;;;;;;;;5128450;28;19928;-71
2022/06/18 03:56:25;;;;;;;;;;;;;;;;;;5131532;27;20003;-71
2022/06/18 03:58:51;;;;;;;;;;;;;;;;;;5129517;27;19932;-71
2022/06/18 04:01:17;;;;;;;;;;;;;;;;;;5128219;28;20060;-71
2022/06/18 04:03:43;;;;;;;;;;;;;;;;;;5124589;28;20022;-71
2022/06/18 04:06:09;;;;;;;;;;;;;;;;;;5127408;28;19930;-71
2022/06/18 04:08:35;;;;;;;;;;;;;;;;;;5127868;28;19924;-71
2022/06/18 04:11:01;;;;;;;;;;;;;;;;;;5127677;28;19924;-71
2022/06/18 04:13:28;;;;;;;;;;;;;;;;;;5127115;28;19946;-71
2022/06/18 04:15:54;;;;;;;;;;;;;;;;;;5134969;27;20014;-71
2022/06/18 04:18:20;;;;;;;;;;;;;;;;;;5127925;28;19976;-70
2022/06/18 04:20:46;;;;;;;;;;;;;;;;;;5127747;28;20014;-70
2022/06/18 04:23:15;;;;;;;;;;;;;;;;;;5127707;28;20354;-71
2022/06/18 04:25:41;;;;;;;;;;;;;;;;;;5126882;28;19992;-71
2022/06/18 04:28:07;;;;;;;;;;;;;;;;;;5135116;27;19919;-71
2022/06/18 04:30:33;;;;;;;;;;;;;;;;;;5124796;28;19986;-69
2022/06/18 04:32:59;;;;;;;;;;;;;;;;;;5127458;28;19924;-70
2022/06/18 04:35:25;;;;;;;;;;;;;;;;;;5126680;28;19927;-70
2022/06/18 04:37:51;;;;;;;;;;;;;;;;;;5127468;28;19923;-69
2022/06/18 04:40:17;;;;;;;;;;;;;;;;;;5127452;28;19930;-69
2022/06/18 04:42:43;;;;;;;;;;;;;;;;;;5126420;28;19976;-70
2022/06/18 04:45:09;;;;;;;;;;;;;;;;;;5129086;27;19924;-70
2022/06/18 04:47:35;;;;;;;;;;;;;;;;;;5127278;28;19931;-70
2022/06/18 04:50:01;;;;;;;;;;;;;;;;;;5126963;28;19923;-70
2022/06/18 04:52:27;;;;;;;;;;;;;;;;;;5127334;28;19931;-70
2022/06/18 04:54:53;;;;;;;;;;;;;;;;;;5128811;27;19924;-70
2022/06/18 04:57:19;;;;;;;;;;;;;;;;;;5124058;27;19924;-70
2022/06/18 04:59:45;;;;;;;;;;;;;;;;;;5127181;28;20307;-70
2022/06/18 05:02:11;;;;;;;;;;;;;;;;;;5125415;28;19924;-70
2022/06/18 05:04:37;;;;;;;;;;;;;;;;;;5124938;28;19924;-70
2022/06/18 05:07:03;;;;;;;;;;;;;;;;;;5126674;28;19924;-70
2022/06/18 05:09:29;;;;;;;;;;;;;;;;;;5126765;27;19967;-70
2022/06/18 05:11:55;;;;;;;;;;;;;;;;;;5125938;28;19963;-70
2022/06/18 05:14:21;;;;;;;;;;;;;;;;;;5132593;27;19920;-69
2022/06/18 05:16:47;;;;;;;;;;;;;;;;;;5126802;28;19931;-70
2022/06/18 05:19:13;;;;;;;;;;;;;;;;;;5126425;28;19924;-70
2022/06/18 05:21:39;;;;;;;;;;;;;;;;;;5126604;28;19969;-70
2022/06/18 05:24:05;;;;;;;;;;;;;;;;;;5133539;27;20276;-70
2022/06/18 05:26:31;;;;;;;;;;;;;;;;;;5124834;28;19931;-70
2022/06/18 05:28:57;;;;;;;;;;;;;;;;;;5126295;28;19924;-70
2022/06/18 05:31:23;;;;;;;;;;;;;;;;;;5123074;28;19931;-70
2022/06/18 05:33:49;;;;;;;;;;;;;;;;;;5125518;27;19920;-70
2022/06/18 05:36:19;;;;;;;;;;;;;;;;;;5121918;27;19923;-70
2022/06/18 05:38:45;;;;;;;;;;;;;;;;;;5122730;27;20367;-70
2022/06/18 05:41:11;;;;;;;;;;;;;;;;;;5123805;28;19935;-71
2022/06/18 05:43:37;;;;;;;;;;;;;;;;;;5126813;28;19928;-71
2022/06/18 05:46:03;;;;;;;;;;;;;;;;;;5126454;27;19931;-70
2022/06/18 05:48:29;;;;;;;;;;;;;;;;;;5116336;28;19924;-71
2022/06/18 05:50:55;;;;;;;;;;;;;;;;;;5123499;28;19924;-71
2022/06/18 05:53:21;;;;;;;;;;;;;;;;;;5124495;28;19919;-73
2022/06/18 05:55:48;;;;;;;;;;;;;;;;;;5124760;28;19930;-69
2022/06/18 05:58:14;;;;;;;;;;;;;;;;;;5125967;28;19929;-69
2022/06/18 06:00:40;;;;;;;;;;;;;;;;;;5130967;27;19924;-69
2022/06/18 06:03:06;;;;;;;;;;;;;;;;;;5117199;28;19924;-67
2022/06/18 06:05:32;;;;;;;;;;;;;;;;;;5123339;28;19930;-67
2022/06/18 06:07:58;;;;;;;;;;;;;;;;;;5121823;27;20030;-67
2022/06/18 06:13:09;;;;;;;;;;;;;;;;;;5115670;28;19998;-68
2022/06/18 06:15:35;;;;;;;;;;;;;;;;;;5121948;28;19928;-68
2022/06/18 06:18:01;;;;;;;;;;;;;;;;;;5120326;27;19928;-68
2022/06/18 06:20:27;;;;;;;;;;;;;;;;;;5126751;28;19924;-68
2022/06/18 06:22:53;;;;;;;;;;;;;;;;;;5128744;28;20010;-68
2022/06/18 06:25:19;;;;;;;;;;;;;;;;;;5126199;28;19920;-68
2022/06/18 06:27:45;;;;;;;;;;;;;;;;;;5118508;28;19966;-68
2022/06/18 06:30:11;;;;;;;;;;;;;;;;;;5124777;28;19934;-68
2022/06/18 06:32:37;;;;;;;;;;;;;;;;;;5119585;28;19924;-69
2022/06/18 06:35:03;;;;;;;;;;;;;;;;;;5121652;28;19963;-68
2022/06/18 06:37:29;;;;;;;;;;;;;;;;;;5128147;27;19920;-68
2022/06/18 06:39:55;;;;;;;;;;;;;;;;;;5131405;27;19977;-68
2022/06/18 06:42:21;;;;;;;;;;;;;;;;;;5136832;27;20006;-68
2022/06/18 06:44:47;;;;;;;;;;;;;;;;;;5129580;28;20374;-68
2022/06/18 06:47:13;;;;;;;;;;;;;;;;;;5127973;28;20033;-68
2022/06/18 06:49:39;;;;;;;;;;;;;;;;;;5124814;27;19932;-68
2022/06/18 06:52:05;;;;;;;;;;;;;;;;;;5138424;27;19924;-68
2022/06/18 06:54:31;;;;;;;;;;;;;;;;;;5124035;27;20011;-68
2022/06/18 06:59:42;;;;;;;;;;;;;;;;;;5126590;27;20282;-68
2022/06/18 07:02:08;;;;;;;;;;;;;;;;;;5129689;27;19991;-68
2022/06/18 07:04:34;;;;;;;;;;;;;;;;;;5130630;27;19924;-68
2022/06/18 07:07:00;;;;;;;;;;;;;;;;;;5123666;27;19930;-67
2022/06/18 07:09:26;;;;;;;;;;;;;;;;;;5123693;28;19920;-83
2022/06/18 07:11:52;;;;;;;;;;;;;;;;;;5126536;28;20376;-83
2022/06/18 07:14:18;;;;;;;;;;;;;;;;;;5125945;27;19943;-83
2022/06/18 07:16:44;;;;;;;;;;;;;;;;;;5125109;28;19920;-82
2022/06/18 07:19:10;;;;;;;;;;;;;;;;;;5131690;27;19924;-82
2022/06/18 07:21:36;;;;;;;;;;;;;;;;;;5123765;27;19931;-82
2022/06/18 07:24:02;;;;;;;;;;;;;;;;;;5130149;27;20326;-83
2022/06/18 07:26:28;;;;;;;;;;;;;;;;;;5125701;28;19928;-83
2022/06/18 07:28:54;;;;;;;;;;;;;;;;;;5128948;27;19924;-83
2022/06/18 07:31:20;;;;;;;;;;;;;;;;;;5120196;27;19953;-82
2022/06/18 07:33:46;;;;;;;;;;;;;;;;;;5129520;28;19923;-83
2022/06/18 07:36:12;;;;;;;;;;;;;;;;;;5129829;28;19930;-83
2022/06/18 07:38:38;;;;;;;;;;;;;;;;;;5130183;28;19928;-83
2022/06/18 07:41:04;;;;;;;;;;;;;;;;;;5130331;28;19977;-82
2022/06/18 07:43:30;;;;;;;;;;;;;;;;;;5129423;28;19924;-82
2022/06/18 07:45:56;;;;;;;;;;;;;;;;;;5129960;28;19923;-83
2022/06/18 07:48:23;;;;;;;;;;;;;;;;;;5131132;28;19926;-82
2022/06/18 07:50:49;;;;;;;;;;;;;;;;;;5130593;28;20310;-82
2022/06/18 07:53:15;;;;;;;;;;;;;;;;;;5129608;28;19967;-83
2022/06/18 07:55:41;;;;;;;;;;;;;;;;;;5130725;28;19926;-83
2022/06/18 07:58:07;;;;;;;;;;;;;;;;;;5130593;28;19923;-83
2022/06/18 08:00:33;;;;;;;;;;;;;;;;;;5130359;28;20376;-83
2022/06/18 08:02:59;;;;;;;;;;;;;;;;;;5130495;27;19927;-82
2022/06/18 08:05:27;;;;;;;;;;;;;;;;;;5130346;27;19924;-83
2022/06/18 08:07:53;;;;;;;;;;;;;;;;;;5130224;28;19975;-82
2022/06/18 08:10:19;;;;;;;;;;;;;;;;;;5131201;27;19928;-83
2022/06/18 08:12:45;;;;;;;;;;;;;;;;;;5132621;28;19930;-84
2022/06/18 08:15:11;;;;;;;;;;;;;;;;;;5130721;27;19931;-83
2022/06/18 08:17:37;;;;;;;;;;;;;;;;;;5130829;28;19924;-82
2022/06/18 08:20:03;;;;;;;;;;;;;;;;;;5131591;28;19924;-84
2022/06/18 08:22:29;;;;;;;;;;;;;;;;;;5132079;28;19924;-84
2022/06/18 08:24:55;;;;;;;;;;;;;;;;;;5130694;28;19924;-82
2022/06/18 08:27:21;;;;;;;;;;;;;;;;;;5130733;28;19923;-81
2022/06/18 08:29:47;;;;;;;;;;;;;;;;;;5128362;28;19924;-81
2022/06/18 08:32:13;;;;;;;;;;;;;;;;;;5129752;28;19924;-81
2022/06/18 08:34:39;;;;;;;;;;;;;;;;;;5129806;28;19963;-83
2022/06/18 08:37:05;;;;;;;;;;;;;;;;;;5130485;28;19974;-83
2022/06/18 08:39:31;;;;;;;;;;;;;;;;;;5131779;28;19970;-83
2022/06/18 08:41:57;;;;;;;;;;;;;;;;;;5130289;28;19955;-82
2022/06/18 08:44:23;;;;;;;;;;;;;;;;;;5129968;28;19974;-83
2022/06/18 08:46:49;;;;;;;;;;;;;;;;;;5129549;27;19963;-81
2022/06/18 08:49:15;;;;;;;;;;;;;;;;;;5130059;28;19987;-82
2022/06/18 08:51:41;;;;;;;;;;;;;;;;;;5128911;28;19924;-83
2022/06/18 08:54:07;;;;;;;;;;;;;;;;;;5130162;28;19919;-83
2022/06/18 08:56:33;;;;;;;;;;;;;;;;;;5130424;28;19931;-82
2022/06/18 08:58:59;;;;;;;;;;;;;;;;;;5129068;28;19928;-82
2022/06/18 09:01:25;;;;;;;;;;;;;;;;;;5129407;28;19924;-83
2022/06/18 09:03:51;;;;;;;;;;;;;;;;;;5129056;28;19924;-83
2022/06/18 09:06:17;;;;;;;;;;;;;;;;;;5129415;28;19924;-82
2022/06/18 09:08:43;;;;;;;;;;;;;;;;;;5128844;28;19931;-82
2022/06/18 09:11:09;;;;;;;;;;;;;;;;;;5129500;28;19923;-82
2022/06/18 09:13:35;;;;;;;;;;;;;;;;;;5129603;28;19924;-83
2022/06/18 09:16:01;;;;;;;;;;;;;;;;;;5129584;27;19950;-82
2022/06/18 09:18:27;;;;;;;;;;;;;;;;;;5129671;28;19924;-83
2022/06/18 09:20:53;;;;;;;;;;;;;;;;;;5128262;28;19924;-82
2022/06/18 09:23:19;;;;;;;;;;;;;;;;;;5129514;28;20299;-82
2022/06/18 09:25:47;;;;;;;;;;;;;;;;;;5128402;28;19924;-82
2022/06/18 09:28:13;;;;;;;;;;;;;;;;;;5128729;28;20264;-82
2022/06/18 09:30:39;;;;;;;;;;;;;;;;;;5130501;28;19926;-82
2022/06/18 09:33:05;;;;;;;;;;;;;;;;;;5130600;28;20401;-83
2022/06/18 09:35:31;;;;;;;;;;;;;;;;;;5130002;28;19962;-83
2022/06/18 09:37:57;;;;;;;;;;;;;;;;;;5131570;28;19931;-82
2022/06/18 09:40:23;;;;;;;;;;;;;;;;;;5129537;28;19924;-82
2022/06/18 09:42:49;;;;;;;;;;;;;;;;;;5129840;28;19923;-82
2022/06/18 09:45:15;;;;;;;;;;;;;;;;;;5129633;28;19931;-82
2022/06/18 09:47:41;;;;;;;;;;;;;;;;;;5129398;28;19959;-83
2022/06/18 09:50:07;;;;;;;;;;;;;;;;;;5129610;28;19975;-82
2022/06/18 09:52:33;;;;;;;;;;;;;;;;;;5128761;28;19928;-82
2022/06/18 09:54:59;;;;;;;;;;;;;;;;;;5128932;28;19928;-82
2022/06/18 09:57:25;;;;;;;;;;;;;;;;;;5128653;28;19928;-82
2022/06/18 09:59:51;;;;;;;;;;;;;;;;;;5127526;28;19920;-83
2022/06/18 10:02:17;;;;;;;;;;;;;;;;;;5129378;28;20010;-82
2022/06/18 10:07:28;;;;;;;;;;;;;;;;;;5128813;28;19998;-82
2022/06/18 10:09:54;;;;;;;;;;;;;;;;;;5130314;28;19934;-83
2022/06/18 10:12:20;;;;;;;;;;;;;;;;;;5129917;28;19969;-82
2022/06/18 10:14:46;;;;;;;;;;;;;;;;;;5127973;28;19930;-82
2022/06/18 10:17:12;;;;;;;;;;;;;;;;;;5129413;28;19987;-82
2022/06/18 10:19:38;;;;;;;;;;;;;;;;;;5128552;28;19930;-82
2022/06/18 10:22:04;;;;;;;;;;;;;;;;;;5128593;28;19923;-82
2022/06/18 10:24:30;;;;;;;;;;;;;;;;;;5127079;28;19945;-81
2022/06/18 10:26:56;;;;;;;;;;;;;;;;;;5126836;28;19924;-82
2022/06/18 10:29:22;;;;;;;;;;;;;;;;;;5126857;28;19923;-82
2022/06/18 10:31:48;;;;;;;;;;;;;;;;;;5127663;28;19932;-81
2022/06/18 10:34:14;;;;;;;;;;;;;;;;;;5126598;28;19923;-82
2022/06/18 10:36:40;;;;;;;;;;;;;;;;;;5126656;27;19923;-81
2022/06/18 10:39:06;;;;;;;;;;;;;;;;;;5126768;28;19931;-81
2022/06/18 10:41:32;;;;;;;;;;;;;;;;;;5127357;28;19923;-83
2022/06/18 10:43:58;;;;;;;;;;;;;;;;;;5128315;28;20069;-82
2022/06/18 10:46:24;;;;;;;;;;;;;;;;;;5126584;28;19923;-81
2022/06/18 10:48:50;;;;;;;;;;;;;;;;;;5127715;27;19927;-77
2022/06/18 10:51:16;;;;;;;;;;;;;;;;;;5126877;28;19946;-82
2022/06/18 10:53:42;;;;;;;;;;;;;;;;;;5127880;28;19946;-82
2022/06/18 10:56:08;;;;;;;;;;;;;;;;;;5127696;28;19935;-83
2022/06/18 10:58:34;;;;;;;;;;;;;;;;;;5126487;28;19931;-82
2022/06/18 11:01:00;;;;;;;;;;;;;;;;;;5127224;28;19924;-81
2022/06/18 11:03:26;;;;;;;;;;;;;;;;;;5126594;28;19947;-82
2022/06/18 11:05:52;;;;;;;;;;;;;;;;;;5127047;28;19924;-81
2022/06/18 11:08:18;;;;;;;;;;;;;;;;;;5127357;28;19928;-81
2022/06/18 11:10:44;;;;;;;;;;;;;;;;;;5126337;28;19972;-81
2022/06/18 11:13:10;;;;;;;;;;;;;;;;;;5126045;28;19946;-81
2022/06/18 11:15:36;;;;;;;;;;;;;;;;;;5127074;28;19924;-82
2022/06/18 11:18:02;;;;;;;;;;;;;;;;;;5126813;28;19920;-81
2022/06/18 11:20:28;;;;;;;;;;;;;;;;;;5126701;28;19946;-82
2022/06/18 11:22:54;;;;;;;;;;;;;;;;;;5131014;28;19924;-82
2022/06/18 11:25:20;;;;;;;;;;;;;;;;;;5133213;28;19924;-82
2022/06/18 11:27:46;;;;;;;;;;;;;;;;;;5131417;28;19924;-83
2022/06/18 11:30:12;;;;;;;;;;;;;;;;;;5120872;28;19920;-82
2022/06/18 11:32:38;;;;;;;;;;;;;;;;;;5130397;28;19957;-82
2022/06/18 11:35:04;;;;;;;;;;;;;;;;;;5133932;28;19946;-81
2022/06/18 11:37:31;;;;;;;;;;;;;;;;;;5130531;28;19919;-80
2022/06/18 11:39:57;;;;;;;;;;;;;;;;;;5134854;28;19923;-83
2022/06/18 11:42:23;;;;;;;;;;;;;;;;;;5133768;28;19924;-82
2022/06/18 11:44:49;;;;;;;;;;;;;;;;;;5133418;28;19931;-83
2022/06/18 11:47:15;;;;;;;;;;;;;;;;;;5133147;28;19924;-83
2022/06/18 11:49:41;;;;;;;;;;;;;;;;;;5131839;28;19939;-83
2022/06/18 11:52:07;;;;;;;;;;;;;;;;;;5133097;28;19923;-82
2022/06/18 11:54:33;;;;;;;;;;;;;;;;;;5131752;28;20048;-82
2022/06/18 11:56:59;;;;;;;;;;;;;;;;;;5131935;28;20315;-82
2022/06/18 11:59:25;;;;;;;;;;;;;;;;;;5130480;28;19987;-82
2022/06/18 12:01:51;;;;;;;;;;;;;;;;;;5130602;28;19984;-82
2022/06/18 12:04:17;;;;;;;;;;;;;;;;;;5131426;28;19924;-83
2022/06/18 12:06:43;;;;;;;;;;;;;;;;;;5130488;27;20065;-82
2022/06/18 12:09:09;;;;;;;;;;;;;;;;;;5130408;28;19987;-80
2022/06/18 12:11:35;;;;;;;;;;;;;;;;;;5129447;28;20012;-81
2022/06/18 12:14:01;;;;;;;;;;;;;;;;;;5129671;28;20153;-82
2022/06/18 12:16:27;;;;;;;;;;;;;;;;;;5129838;28;19966;-82
2022/06/18 12:18:53;;;;;;;;;;;;;;;;;;5129388;28;19982;-81
2022/06/18 12:21:19;;;;;;;;;;;;;;;;;;5127679;28;19934;-82
2022/06/18 12:23:45;;;;;;;;;;;;;;;;;;5129604;28;19924;-83
2022/06/18 12:26:11;;;;;;;;;;;;;;;;;;5128602;28;20005;-81
2022/06/18 12:28:37;;;;;;;;;;;;;;;;;;5127428;28;19924;-81
2022/06/18 12:31:03;;;;;;;;;;;;;;;;;;5128355;28;20192;-82
2022/06/18 12:33:29;;;;;;;;;;;;;;;;;;5125973;28;19931;-81
2022/06/18 12:35:56;;;;;;;;;;;;;;;;;;5128591;28;19923;-82
2022/06/18 12:38:22;;;;;;;;;;;;;;;;;;5131154;27;19931;-82
2022/06/18 12:40:48;;;;;;;;;;;;;;;;;;5129614;28;19927;-82
2022/06/18 12:43:14;;;;;;;;;;;;;;;;;;5130933;28;19924;-82
2022/06/18 12:45:40;;;;;;;;;;;;;;;;;;5130034;27;20449;-82
2022/06/18 12:48:06;;;;;;;;;;;;;;;;;;5127525;28;19928;-81
2022/06/18 12:50:33;;;;;;;;;;;;;;;;;;5113691;28;19924;-82
2022/06/18 12:52:59;;;;;;;;;;;;;;;;;;5127623;28;19924;-81
2022/06/18 12:55:25;;;;;;;;;;;;;;;;;;5127276;28;19923;-81
2022/06/18 12:57:52;;;;;;;;;;;;;;;;;;5127119;28;19935;-80
2022/06/18 13:00:19;;;;;;;;;;;;;;;;;;5127280;27;19974;-80
2022/06/18 13:02:45;;;;;;;;;;;;;;;;;;5126965;28;20287;-81
2022/06/18 13:05:11;;;;;;;;;;;;;;;;;;5126928;28;19923;-80
2022/06/18 13:07:37;;;;;;;;;;;;;;;;;;5127432;28;19930;-81
2022/06/18 13:10:03;;;;;;;;;;;;;;;;;;5127209;28;19924;-80
2022/06/18 13:12:29;;;;;;;;;;;;;;;;;;5126879;28;19963;-81
2022/06/18 13:14:55;;;;;;;;;;;;;;;;;;5125716;28;19927;-81
2022/06/18 13:17:21;;;;;;;;;;;;;;;;;;5127156;28;19953;-80
2022/06/18 13:19:47;;;;;;;;;;;;;;;;;;5126873;28;19928;-80
2022/06/18 13:22:13;;;;;;;;;;;;;;;;;;5126504;28;19987;-81
2022/06/18 13:30:09;;;;;;;;;;;;;;;;;;5126972;28;19932;-81
2022/06/18 13:32:35;;;;;;;;;;;;;;;;;;5125177;28;19931;-80
2022/06/18 13:35:01;;;;;;;;;;;;;;;;;;5126658;28;19923;-82
2022/06/18 13:37:27;;;;;;;;;;;;;;;;;;5126837;28;19919;-81
2022/06/18 13:39:53;;;;;;;;;;;;;;;;;;5126587;28;19923;-82
2022/06/18 13:42:19;;;;;;;;;;;;;;;;;;5126596;27;19949;-81
2022/06/18 13:44:45;;;;;;;;;;;;;;;;;;5126101;28;19976;-80
2022/06/18 13:47:11;;;;;;;;;;;;;;;;;;5126580;28;19928;-80
2022/06/18 13:49:36;;;;;;;;;;;;;;;;;;5126788;28;19924;-82
2022/06/18 13:52:02;;;;;;;;;;;;;;;;;;5127015;28;19943;-81
2022/06/18 13:54:28;;;;;;;;;;;;;;;;;;5126416;28;19928;-81
2022/06/18 13:56:54;;;;;;;;;;;;;;;;;;5126152;28;19974;-81
2022/06/18 13:59:20;;;;;;;;;;;;;;;;;;5126417;28;19928;-80
2022/06/18 14:01:46;;;;;;;;;;;;;;;;;;5125934;28;19945;-80
2022/06/18 14:04:12;;;;;;;;;;;;;;;;;;5125808;28;19928;-80
2022/06/18 14:06:38;;;;;;;;;;;;;;;;;;5126159;28;19928;-80
2022/06/18 14:09:04;;;;;;;;;;;;;;;;;;5126098;28;19923;-80
2022/06/18 14:11:30;;;;;;;;;;;;;;;;;;5125939;28;19924;-80
2022/06/18 14:13:57;;;;;;;;;;;;;;;;;;5126067;28;19982;-80
2022/06/18 14:16:23;;;;;;;;;;;;;;;;;;5126001;28;19976;-81
2022/06/18 14:18:49;;;;;;;;;;;;;;;;;;5125952;28;19928;-81
2022/06/18 14:21:15;;;;;;;;;;;;;;;;;;5125965;28;20375;-80
2022/06/18 14:23:41;;;;;;;;;;;;;;;;;;5125878;28;19931;-81
2022/06/18 14:26:07;;;;;;;;;;;;;;;;;;5124943;28;19924;-81
2022/06/18 14:28:33;;;;;;;;;;;;;;;;;;5125546;28;19924;-80
2022/06/18 14:30:59;;;;;;;;;;;;;;;;;;5124539;28;20148;-80
2022/06/18 14:33:25;;;;;;;;;;;;;;;;;;5126030;28;20107;-81
2022/06/18 14:35:51;;;;;;;;;;;;;;;;;;5125574;28;20442;-81
2022/06/18 14:38:17;;;;;;;;;;;;;;;;;;5125688;28;19955;-81
2022/06/18 14:43:31;;;;;;;;;;;;;;;;;;5113446;28;19924;-81
2022/06/18 14:45:57;;;;;;;;;;;;;;;;;;5125703;27;20543;-82
2022/06/18 14:48:23;;;;;;;;;;;;;;;;;;5125479;28;20190;-80
2022/06/18 14:50:49;;;;;;;;;;;;;;;;;;5125468;28;19988;-81
2022/06/18 14:53:16;;;;;;;;;;;;;;;;;;5125148;28;19924;-81
2022/06/18 14:55:42;;;;;;;;;;;;;;;;;;5125651;28;19951;-81
2022/06/18 14:58:08;;;;;;;;;;;;;;;;;;5129621;28;20109;-80
2022/06/18 15:00:34;;;;;;;;;;;;;;;;;;5129431;28;19955;-81
2022/06/18 15:03:00;;;;;;;;;;;;;;;;;;5129132;28;20004;-80
2022/06/18 15:05:26;;;;;;;;;;;;;;;;;;5129174;28;20028;-80
2022/06/18 15:07:52;;;;;;;;;;;;;;;;;;5128905;28;19931;-81
2022/06/18 15:10:18;;;;;;;;;;;;;;;;;;5129090;28;19982;-81
2022/06/18 15:12:44;;;;;;;;;;;;;;;;;;5129335;28;19946;-80
2022/06/18 15:15:12;;;;;;;;;;;;;;;;;;5129119;28;20391;-81
2022/06/18 15:18:16;;;;;;;;;;;;;;;;;;5129177;28;19934;-81
2022/06/18 15:21:04;;;;;;;;;;;;;;;;;;5128530;27;19931;-81
2022/06/18 15:23:21;;;;;;;;;;;;;;;;;;5118110;28;19924;-80
2022/06/18 15:25:47;;;;;;;;;;;;;;;;;;5128907;28;19924;-81
2022/06/18 15:28:14;;;;;;;;;;;;;;;;;;5128906;28;19923;-81
2022/06/18 15:30:40;;;;;;;;;;;;;;;;;;5128826;28;19971;-81
2022/06/18 15:33:06;;;;;;;;;;;;;;;;;;5128668;28;19928;-80
2022/06/18 15:35:32;;;;;;;;;;;;;;;;;;5128734;28;19926;-80
2022/06/18 15:37:58;;;;;;;;;;;;;;;;;;5128680;28;20295;-80
2022/06/18 15:40:25;;;;;;;;;;;;;;;;;;5128490;28;20395;-80
2022/06/18 15:42:51;;;;;;;;;;;;;;;;;;5128582;28;20115;-79
2022/06/18 15:45:17;;;;;;;;;;;;;;;;;;5128620;28;19956;-79
2022/06/18 15:47:43;;;;;;;;;;;;;;;;;;5127401;28;19924;-79
2022/06/18 15:50:09;;;;;;;;;;;;;;;;;;5128079;28;19932;-80
2022/06/18 15:52:35;;;;;;;;;;;;;;;;;;5128610;28;20003;-81
2022/06/18 15:55:01;;;;;;;;;;;;;;;;;;5128504;28;20030;-80
2022/06/18 15:57:28;;;;;;;;;;;;;;;;;;5128450;28;19949;-79
2022/06/18 15:59:54;;;;;;;;;;;;;;;;;;5127200;28;20307;-79
2022/06/18 16:02:20;;;;;;;;;;;;;;;;;;5127983;28;19923;-79
2022/06/18 16:04:46;;;;;;;;;;;;;;;;;;5128045;28;19923;-80
2022/06/18 16:07:12;;;;;;;;;;;;;;;;;;5127867;28;19930;-79
2022/06/18 16:09:44;;;;;;;;;;;;;;;;;;5128159;28;19919;-80
2022/06/18 16:12:10;;;;;;;;;;;;;;;;;;5127915;28;19923;-80
2022/06/18 16:14:36;;;;;;;;;;;;;;;;;;5128204;28;19920;-79
2022/06/18 16:17:02;;;;;;;;;;;;;;;;;;5127968;28;20001;-81
2022/06/18 16:19:28;;;;;;;;;;;;;;;;;;5126800;28;19924;-80
2022/06/18 16:21:54;;;;;;;;;;;;;;;;;;5126354;28;20447;-80
2022/06/18 16:24:21;;;;;;;;;;;;;;;;;;5126704;28;19924;-79
2022/06/18 16:26:47;;;;;;;;;;;;;;;;;;5127850;28;19949;-79
2022/06/18 16:29:13;;;;;;;;;;;;;;;;;;5127692;28;20387;-80
2022/06/18 16:31:39;;;;;;;;;;;;;;;;;;5127671;28;19935;-80
2022/06/18 16:34:05;;;;;;;;;;;;;;;;;;5127140;28;19920;-80
2022/06/18 16:36:31;;;;;;;;;;;;;;;;;;5126416;28;19924;-80
2022/06/18 16:38:57;;;;;;;;;;;;;;;;;;5127672;28;19924;-79
2022/06/18 16:41:23;;;;;;;;;;;;;;;;;;5127491;28;20029;-80
2022/06/18 16:43:49;;;;;;;;;;;;;;;;;;5127424;28;19923;-78
2022/06/18 16:46:15;;;;;;;;;;;;;;;;;;5127513;27;19970;-79
2022/06/18 16:48:41;;;;;;;;;;;;;;;;;;5127355;28;20006;-80
2022/06/18 16:51:07;;;;;;;;;;;;;;;;;;5127259;28;19963;-80
2022/06/18 16:53:33;;;;;;;;;;;;;;;;;;5127285;28;19978;-80
2022/06/18 16:55:59;;;;;;;;;;;;;;;;;;5126133;28;19924;-80
2022/06/18 16:58:25;;;;;;;;;;;;;;;;;;5127162;28;19924;-80
2022/06/18 17:00:51;;;;;;;;;;;;;;;;;;5126922;28;19931;-79